createdAt,value
2018-08-21T00:00:49.987Z,9.00
2018-08-21T00:03:22.072Z,9.00
2018-08-21T00:05:54.428Z,12.40
2018-08-21T00:08:26.447Z,9.40
2018-08-21T00:11:09.890Z,9.93
2018-08-21T00:13:42.002Z,9.83
2018-08-21T00:16:14.514Z,8.47
2018-08-21T00:18:46.520Z,9.73
2018-08-21T00:21:18.578Z,10.90
2018-08-21T00:24:02.319Z,8.27
2018-08-21T00:26:34.344Z,9.60
2018-08-21T00:29:06.975Z,9.23
2018-08-21T00:31:42.877Z,10.00
2018-08-21T00:34:20.308Z,8.70
2018-08-21T00:36:58.768Z,8.60
2018-08-21T00:39:31.518Z,9.63
2018-08-21T00:42:05.048Z,10.33
2018-08-21T00:44:37.739Z,10.30
2018-08-21T00:47:09.756Z,9.57
2018-08-21T00:49:41.751Z,9.10
2018-08-21T00:52:13.752Z,8.80
2018-08-21T00:54:45.755Z,9.40
2018-08-21T00:57:17.784Z,9.20
2018-08-21T00:59:49.790Z,9.10
2018-08-21T01:02:21.867Z,8.90
2018-08-21T01:04:53.896Z,8.60
2018-08-21T01:07:25.894Z,9.60
2018-08-21T01:09:57.912Z,8.97
2018-08-21T01:12:29.932Z,9.83
2018-08-21T01:15:01.928Z,9.90
2018-08-21T01:17:33.952Z,13.20
2018-08-21T01:20:07.719Z,8.70
2018-08-21T01:22:40.148Z,9.10
2018-08-21T01:25:14.121Z,10.77
2018-08-21T01:27:46.150Z,9.97
2018-08-21T01:30:18.163Z,9.73
2018-08-21T01:32:50.272Z,9.70
2018-08-21T01:35:22.313Z,10.30
2018-08-21T01:37:54.327Z,9.33
2018-08-21T01:40:26.344Z,9.70
2018-08-21T01:42:58.395Z,9.43
2018-08-21T01:45:30.429Z,10.77
2018-08-21T01:48:02.472Z,9.50
2018-08-21T01:50:34.570Z,9.37
2018-08-21T01:53:06.549Z,9.83
2018-08-21T01:55:38.537Z,9.27
2018-08-21T01:58:10.547Z,10.77
2018-08-21T02:00:42.559Z,9.90
2018-08-21T02:03:14.578Z,10.00
2018-08-21T02:05:46.602Z,10.23
2018-08-21T02:08:18.826Z,9.30
2018-08-21T02:10:51.438Z,10.17
2018-08-21T02:13:23.434Z,8.93
2018-08-21T02:15:55.487Z,9.63
2018-08-21T02:18:27.474Z,12.10
2018-08-21T02:20:59.495Z,9.70
2018-08-21T02:23:31.528Z,8.80
2018-08-21T02:26:03.550Z,10.43
2018-08-21T02:28:35.598Z,8.80
2018-08-21T02:31:07.608Z,9.63
2018-08-21T02:33:39.635Z,10.03
2018-08-21T02:36:11.620Z,11.73
2018-08-21T02:38:43.648Z,14.20
2018-08-21T02:41:15.655Z,9.90
2018-08-21T02:43:47.640Z,9.50
2018-08-21T02:46:22.070Z,9.40
2018-08-21T02:48:56.402Z,12.53
2018-08-21T02:51:31.830Z,12.00
2018-08-21T02:54:04.072Z,12.00
2018-08-21T02:56:37.478Z,13.00
2018-08-21T02:59:09.447Z,10.77
2018-08-21T03:01:47.070Z,10.20
2018-08-21T03:04:21.458Z,11.03
2018-08-21T03:06:53.471Z,10.70
2018-08-21T03:09:25.500Z,10.13
2018-08-21T03:11:57.482Z,9.27
2018-08-21T03:14:29.467Z,9.70
2018-08-21T03:17:01.504Z,9.53
2018-08-21T03:19:33.528Z,9.07
2018-08-21T03:22:05.589Z,10.50
2018-08-21T03:24:37.590Z,10.13
2018-08-21T03:27:09.619Z,9.20
2018-08-21T03:29:41.626Z,9.33
2018-08-21T03:32:13.599Z,9.90
2018-08-21T03:34:45.599Z,10.20
2018-08-21T03:37:17.584Z,8.43
2018-08-21T03:39:51.101Z,9.17
2018-08-21T03:42:23.186Z,8.40
2018-08-21T03:45:01.278Z,9.53
2018-08-21T03:47:41.107Z,9.93
2018-08-21T03:50:16.226Z,9.57
2018-08-21T03:52:48.386Z,8.80
2018-08-21T03:55:20.463Z,8.47
2018-08-21T03:57:52.474Z,10.63
2018-08-21T04:00:25.342Z,8.40
2018-08-21T04:02:57.380Z,9.40
2018-08-21T04:05:29.379Z,8.30
2018-08-21T04:08:01.376Z,10.80
2018-08-21T04:10:33.407Z,10.53
2018-08-21T04:13:05.414Z,8.23
2018-08-21T04:15:37.422Z,8.80
2018-08-21T04:18:09.486Z,8.90
2018-08-21T04:20:41.491Z,10.73
2018-08-21T04:23:14.176Z,10.77
2018-08-21T04:25:46.170Z,10.50
2018-08-21T04:28:18.172Z,9.40
2018-08-21T04:30:50.135Z,9.53
2018-08-21T04:33:22.234Z,9.20
2018-08-21T04:35:54.226Z,8.83
2018-08-21T04:38:26.236Z,9.30
2018-08-21T04:40:58.244Z,9.20
2018-08-21T04:43:30.323Z,9.63
2018-08-21T04:46:02.696Z,8.87
2018-08-21T04:48:38.961Z,8.47
2018-08-21T04:51:10.974Z,8.33
2018-08-21T04:53:42.920Z,8.97
2018-08-21T04:56:14.923Z,9.03
2018-08-21T04:58:50.806Z,9.20
2018-08-21T05:01:22.717Z,8.80
2018-08-21T05:03:54.701Z,10.93
2018-08-21T05:06:26.670Z,11.37
2018-08-21T05:08:58.706Z,8.50
2018-08-21T05:11:30.654Z,9.17
2018-08-21T05:14:02.664Z,8.60
2018-08-21T05:16:34.700Z,9.10
2018-08-21T05:19:06.730Z,9.70
2018-08-21T05:21:38.671Z,9.37
2018-08-21T05:24:10.676Z,11.10
2018-08-21T05:26:42.674Z,9.93
2018-08-21T05:29:14.655Z,10.90
2018-08-21T05:31:46.651Z,11.97
2018-08-21T05:34:20.659Z,9.23
2018-08-21T05:36:52.671Z,9.10
2018-08-21T05:39:24.684Z,9.83
2018-08-21T05:41:56.667Z,8.90
2018-08-21T05:44:39.114Z,8.83
2018-08-21T05:47:11.136Z,9.00
2018-08-21T05:49:43.124Z,9.20
2018-08-21T05:52:15.213Z,9.90
2018-08-21T05:54:47.211Z,10.50
2018-08-21T05:57:19.767Z,10.23
2018-08-21T05:59:51.814Z,10.03
2018-08-21T06:02:23.854Z,9.73
2018-08-21T06:04:55.882Z,8.90
2018-08-21T06:07:27.884Z,9.10
2018-08-21T06:09:59.951Z,10.67
2018-08-21T06:12:46.884Z,8.50
2018-08-21T06:15:18.983Z,9.70
2018-08-21T06:18:06.689Z,9.07
2018-08-21T06:20:42.087Z,8.87
2018-08-21T06:23:15.442Z,10.37
2018-08-21T06:25:47.471Z,9.83
2018-08-21T06:28:22.068Z,9.80
2018-08-21T06:30:54.081Z,9.80
2018-08-21T06:33:26.111Z,9.60
2018-08-21T06:36:01.114Z,9.53
2018-08-21T06:38:33.488Z,9.33
2018-08-21T06:41:05.589Z,10.30
2018-08-21T06:43:47.824Z,10.30
2018-08-21T06:46:19.842Z,9.33
2018-08-21T06:48:51.807Z,9.50
2018-08-21T06:51:23.819Z,9.83
2018-08-21T06:54:01.538Z,9.17
2018-08-21T06:56:33.616Z,9.33
2018-08-21T06:59:15.632Z,9.90
2018-08-21T07:01:53.521Z,8.67
2018-08-21T07:04:25.539Z,10.47
2018-08-21T07:06:57.538Z,9.17
2018-08-21T07:09:29.548Z,9.30
2018-08-21T07:12:02.680Z,9.70
2018-08-21T07:14:35.620Z,8.40
2018-08-21T07:17:07.484Z,8.87
2018-08-21T07:19:39.489Z,8.50
2018-08-21T07:22:11.579Z,8.67
2018-08-21T07:24:54.152Z,8.87
2018-08-21T07:27:27.564Z,9.50
2018-08-21T07:30:00.842Z,7.90
2018-08-21T07:32:34.187Z,8.60
2018-08-21T07:35:08.150Z,7.93
2018-08-21T07:37:40.740Z,8.53
2018-08-21T07:40:13.202Z,7.83
2018-08-21T07:42:45.219Z,9.30
2018-08-21T07:45:17.199Z,7.30
2018-08-21T07:47:49.213Z,7.23
2018-08-21T07:50:21.245Z,8.77
2018-08-21T07:52:57.077Z,7.77
2018-08-21T07:55:29.059Z,8.63
2018-08-21T07:58:01.066Z,7.90
2018-08-21T08:00:33.075Z,8.50
2018-08-21T08:03:05.073Z,9.70
2018-08-21T08:05:37.083Z,8.63
2018-08-21T08:08:09.080Z,9.20
2018-08-21T08:10:41.110Z,8.80
2018-08-21T08:13:18.765Z,8.70
2018-08-21T08:15:50.775Z,8.50
2018-08-21T08:18:22.774Z,8.83
2018-08-21T08:20:54.785Z,8.13
2018-08-21T08:23:26.801Z,7.80
2018-08-21T08:26:03.712Z,7.20
2018-08-21T08:28:35.706Z,8.10
2018-08-21T08:31:07.707Z,8.13
2018-08-21T08:33:39.715Z,9.77
2018-08-21T08:36:11.703Z,8.70
2018-08-21T08:38:43.675Z,10.90
2018-08-21T08:41:21.369Z,7.10
2018-08-21T08:43:53.375Z,7.10
2018-08-21T08:46:25.358Z,6.57
2018-08-21T08:49:04.387Z,7.57
2018-08-21T08:51:37.337Z,6.90
2018-08-21T08:54:09.316Z,6.43
2018-08-21T08:56:46.276Z,6.53
2018-08-21T08:59:18.314Z,6.90
2018-08-21T09:01:50.237Z,7.00
2018-08-21T09:04:22.267Z,5.77
2018-08-21T09:06:54.304Z,5.60
2018-08-21T09:09:26.300Z,8.10
2018-08-21T09:11:59.797Z,5.83
2018-08-21T09:14:37.724Z,6.27
2018-08-21T09:17:20.458Z,6.50
2018-08-21T09:20:00.587Z,5.73
2018-08-21T09:22:33.765Z,6.10
2018-08-21T09:25:05.821Z,8.17
2018-08-21T09:27:42.468Z,5.57
2018-08-21T09:30:22.001Z,5.13
2018-08-21T09:32:55.773Z,6.80
2018-08-21T09:35:27.795Z,5.50
2018-08-21T09:37:59.873Z,6.00
2018-08-21T09:40:31.847Z,6.03
2018-08-21T09:43:03.885Z,6.30
2018-08-21T09:45:35.929Z,5.67
2018-08-21T09:48:08.345Z,9.10
2018-08-21T09:50:40.439Z,5.93
2018-08-21T09:53:13.208Z,6.57
2018-08-21T09:55:45.266Z,9.20
2018-08-21T09:58:17.552Z,7.27
2018-08-21T10:00:55.382Z,5.40
2018-08-21T10:03:33.700Z,5.07
2018-08-21T10:06:06.834Z,5.00
2018-08-21T10:08:47.932Z,5.20
2018-08-21T10:11:20.587Z,5.57
2018-08-21T10:13:52.986Z,7.10
2018-08-21T10:16:25.003Z,5.20
2018-08-21T10:18:57.043Z,5.43
2018-08-21T10:21:29.140Z,5.80
2018-08-21T10:24:01.267Z,5.33
2018-08-21T10:26:34.610Z,5.30
2018-08-21T10:29:06.673Z,5.30
2018-08-21T10:31:40.072Z,6.10
2018-08-21T10:34:12.068Z,4.90
2018-08-21T10:36:44.057Z,5.60
2018-08-21T10:39:16.041Z,5.00
2018-08-21T10:41:48.027Z,4.97
2018-08-21T10:44:20.031Z,5.17
2018-08-21T10:46:51.998Z,6.03
2018-08-21T10:49:23.988Z,5.50
2018-08-21T10:51:55.951Z,6.03
2018-08-21T10:54:27.972Z,5.10
2018-08-21T10:56:59.939Z,5.17
2018-08-21T10:59:31.951Z,5.90
2018-08-21T11:02:04.028Z,5.00
2018-08-21T11:04:36.051Z,5.10
2018-08-21T11:07:12.611Z,5.73
2018-08-21T11:09:49.283Z,5.60
2018-08-21T11:12:22.437Z,5.70
2018-08-21T11:14:54.562Z,4.43
2018-08-21T11:17:26.668Z,5.00
2018-08-21T11:19:58.713Z,5.60
2018-08-21T11:22:30.753Z,4.67
2018-08-21T11:25:02.850Z,5.23
2018-08-21T11:27:34.935Z,6.33
2018-08-21T11:30:06.998Z,5.43
2018-08-21T11:32:39.081Z,5.77
2018-08-21T11:35:11.123Z,5.23
2018-08-21T11:37:43.909Z,5.70
2018-08-21T11:40:15.922Z,6.23
2018-08-21T11:42:48.963Z,7.23
2018-08-21T11:45:22.245Z,5.20
2018-08-21T11:47:54.415Z,5.60
2018-08-21T11:50:26.488Z,5.63
2018-08-21T11:52:58.460Z,5.57
2018-08-21T11:55:30.456Z,7.13
2018-08-21T11:58:02.462Z,5.67
2018-08-21T12:00:34.487Z,5.60
2018-08-21T12:03:06.499Z,6.17
2018-08-21T12:05:38.498Z,5.40
2018-08-21T12:08:10.543Z,5.30
2018-08-21T12:10:42.537Z,5.53
2018-08-21T12:13:14.508Z,5.40
2018-08-21T12:15:46.558Z,5.30
2018-08-21T12:18:18.534Z,5.90
2018-08-21T12:20:50.535Z,5.23
2018-08-21T12:23:22.508Z,5.47
2018-08-21T12:25:54.579Z,5.57
2018-08-21T12:28:26.634Z,6.07
2018-08-21T12:30:58.640Z,5.53
2018-08-21T12:33:30.781Z,5.10
2018-08-21T12:36:02.839Z,5.83
2018-08-21T12:38:34.851Z,5.20
2018-08-21T12:41:06.862Z,5.47
2018-08-21T12:43:38.871Z,5.67
2018-08-21T12:46:10.895Z,5.80
2018-08-21T12:48:42.926Z,5.43
2018-08-21T12:51:14.926Z,6.53
2018-08-21T12:53:46.924Z,5.43
2018-08-21T12:56:18.942Z,5.93
2018-08-21T12:58:50.954Z,5.33
2018-08-21T13:01:22.970Z,5.60
2018-08-21T13:03:54.993Z,5.10
2018-08-21T13:06:26.994Z,4.70
2018-08-21T13:08:58.998Z,5.77
2018-08-21T13:11:31.023Z,5.80
2018-08-21T13:14:03.027Z,7.67
2018-08-21T13:16:35.028Z,5.70
2018-08-21T13:19:07.064Z,5.43
2018-08-21T13:21:39.075Z,6.33
2018-08-21T13:24:11.163Z,4.90
2018-08-21T13:26:43.176Z,6.00
2018-08-21T13:29:15.164Z,6.17
2018-08-21T13:31:47.177Z,5.33
2018-08-21T13:34:20.190Z,5.20
2018-08-21T13:36:52.230Z,5.57
2018-08-21T13:39:24.230Z,4.73
2018-08-21T13:41:56.227Z,4.83
2018-08-21T13:44:28.263Z,5.27
2018-08-21T13:47:00.297Z,5.87
2018-08-21T13:49:32.284Z,4.77
2018-08-21T13:52:04.364Z,5.77
2018-08-21T13:54:36.480Z,5.20
2018-08-21T13:57:08.542Z,4.93
2018-08-21T13:59:40.537Z,5.33
2018-08-21T14:02:12.571Z,4.90
2018-08-21T14:04:44.576Z,5.40
2018-08-21T14:07:16.584Z,4.20
2018-08-21T14:09:48.592Z,6.10
2018-08-21T14:12:20.594Z,5.40
2018-08-21T14:14:52.609Z,4.93
2018-08-21T14:17:24.688Z,4.93
2018-08-21T14:19:56.673Z,5.17
2018-08-21T14:22:28.675Z,5.23
2018-08-21T14:25:00.693Z,5.33
2018-08-21T14:27:32.699Z,5.00
2018-08-21T14:30:04.929Z,5.40
2018-08-21T14:32:36.947Z,5.73
2018-08-21T14:35:08.995Z,4.60
2018-08-21T14:37:41.023Z,4.47
2018-08-21T14:40:13.043Z,5.00
2018-08-21T14:42:46.110Z,4.73
2018-08-21T14:45:18.133Z,4.97
2018-08-21T14:47:50.162Z,5.33
2018-08-21T14:50:22.255Z,4.60
2018-08-21T14:52:54.300Z,5.03
2018-08-21T14:55:26.268Z,5.13
2018-08-21T14:57:58.318Z,5.17
2018-08-21T15:00:30.326Z,4.90
2018-08-21T15:03:02.371Z,6.93
2018-08-21T15:05:34.372Z,5.07
2018-08-21T15:08:06.376Z,5.20
2018-08-21T15:10:38.415Z,5.23
2018-08-21T15:13:10.442Z,5.67
2018-08-21T15:15:42.468Z,5.30
2018-08-21T15:18:14.495Z,5.30
2018-08-21T15:20:46.487Z,4.67
2018-08-21T15:23:18.500Z,6.33
2018-08-21T15:25:50.470Z,4.67
2018-08-21T15:28:22.480Z,5.40
2018-08-21T15:30:54.494Z,5.33
2018-08-21T15:33:26.556Z,5.67
2018-08-21T15:35:58.485Z,5.33
2018-08-21T15:38:30.470Z,6.30
2018-08-21T15:41:02.439Z,4.73
2018-08-21T15:43:34.437Z,5.33
2018-08-21T15:46:06.429Z,5.93
2018-08-21T15:48:38.441Z,5.50
2018-08-21T15:51:10.424Z,5.20
2018-08-21T15:53:42.446Z,5.97
2018-08-21T15:56:14.494Z,5.70
2018-08-21T15:58:46.559Z,5.67
2018-08-21T16:01:18.648Z,6.60
2018-08-21T16:03:50.680Z,6.13
2018-08-21T16:06:22.652Z,6.90
2018-08-21T16:08:54.714Z,5.60
2018-08-21T16:11:26.821Z,5.00
2018-08-21T16:13:58.707Z,5.63
2018-08-21T16:16:30.749Z,5.57
2018-08-21T16:19:02.876Z,5.53
2018-08-21T16:21:34.790Z,5.97
2018-08-21T16:24:06.798Z,5.43
2018-08-21T16:26:38.892Z,5.33
2018-08-21T16:29:10.991Z,5.57
2018-08-21T16:31:42.984Z,5.80
2018-08-21T16:34:14.950Z,5.20
2018-08-21T16:36:46.955Z,5.70
2018-08-21T16:39:19.015Z,5.60
2018-08-21T16:41:50.943Z,6.17
2018-08-21T16:44:23.023Z,8.00
2018-08-21T16:46:55.071Z,5.50
2018-08-21T16:49:27.046Z,5.80
2018-08-21T16:51:59.107Z,6.00
2018-08-21T16:54:31.056Z,6.23
2018-08-21T16:57:03.043Z,7.20
2018-08-21T16:59:35.117Z,5.53
2018-08-21T17:02:07.080Z,5.90
2018-08-21T17:04:39.043Z,6.37
2018-08-21T17:07:11.119Z,5.90
2018-08-21T17:09:43.160Z,6.43
2018-08-21T17:12:15.236Z,6.47
2018-08-21T17:14:47.311Z,6.47
2018-08-21T17:17:19.370Z,5.60
2018-08-21T17:19:51.429Z,6.07
2018-08-21T17:22:23.499Z,5.70
2018-08-21T17:24:55.683Z,6.40
2018-08-21T17:27:27.715Z,5.40
2018-08-21T17:29:59.787Z,6.60
2018-08-21T17:32:31.838Z,5.87
2018-08-21T17:35:04.072Z,5.93
2018-08-21T17:37:36.122Z,6.20
2018-08-21T17:40:08.162Z,5.40
2018-08-21T17:42:40.247Z,5.70
2018-08-21T17:45:12.314Z,5.60
2018-08-21T17:47:44.361Z,5.50
2018-08-21T17:50:16.432Z,5.80
2018-08-21T17:52:48.476Z,6.87
2018-08-21T17:55:20.566Z,7.83
2018-08-21T17:57:52.628Z,6.37
2018-08-21T18:00:24.683Z,7.07
2018-08-21T18:02:56.689Z,7.77
2018-08-21T18:05:28.730Z,5.53
2018-08-21T18:08:00.707Z,5.43
2018-08-21T18:10:32.714Z,6.27
2018-08-21T18:13:04.855Z,6.10
2018-08-21T18:15:36.886Z,6.30
2018-08-21T18:18:08.949Z,5.90
2018-08-21T18:20:41.008Z,6.97
2018-08-21T18:23:13.090Z,5.73
2018-08-21T18:25:45.118Z,8.30
2018-08-21T18:28:18.142Z,6.23
2018-08-21T18:30:50.168Z,6.70
2018-08-21T18:33:22.252Z,9.13
2018-08-21T18:35:54.275Z,6.47
2018-08-21T18:38:26.278Z,6.10
2018-08-21T18:40:58.468Z,5.80
2018-08-21T18:43:30.475Z,6.70
2018-08-21T18:46:02.696Z,6.03
2018-08-21T18:48:34.997Z,5.73
2018-08-21T18:51:07.829Z,6.70
2018-08-21T18:53:39.850Z,5.60
2018-08-21T18:56:11.888Z,6.33
2018-08-21T18:58:43.992Z,6.57
2018-08-21T19:01:16.866Z,4.77
2018-08-21T19:03:49.062Z,6.17
2018-08-21T19:06:21.370Z,5.30
2018-08-21T19:08:53.343Z,5.63
2018-08-21T19:11:25.404Z,6.20
2018-08-21T19:13:57.394Z,6.37
2018-08-21T19:16:29.448Z,6.23
2018-08-21T19:19:01.467Z,6.57
2018-08-21T19:21:33.535Z,6.27
2018-08-21T19:24:05.763Z,6.60
2018-08-21T19:26:37.771Z,8.83
2018-08-21T19:29:10.251Z,6.13
2018-08-21T19:31:42.879Z,6.93
2018-08-21T19:34:15.030Z,6.13
2018-08-21T19:36:47.166Z,6.20
2018-08-21T19:39:19.207Z,7.40
2018-08-21T19:41:52.201Z,6.77
2018-08-21T19:44:24.669Z,5.77
2018-08-21T19:46:56.734Z,6.30
2018-08-21T19:49:29.404Z,6.37
2018-08-21T19:52:02.151Z,6.30
2018-08-21T19:54:34.152Z,6.63
2018-08-21T19:57:06.608Z,6.37
2018-08-21T19:59:41.578Z,5.97
2018-08-21T20:02:13.646Z,6.43
2018-08-21T20:04:46.301Z,6.50
2018-08-21T20:07:18.505Z,5.57
2018-08-21T20:09:50.747Z,6.53
2018-08-21T20:12:22.875Z,6.63
2018-08-21T20:14:54.964Z,6.27
2018-08-21T20:17:27.834Z,6.40
2018-08-21T20:20:00.162Z,6.30
2018-08-21T20:22:32.144Z,6.33
2018-08-21T20:25:04.186Z,7.17
2018-08-21T20:27:36.356Z,6.40
2018-08-21T20:30:08.451Z,6.73
2018-08-21T20:32:40.458Z,6.20
2018-08-21T20:35:12.481Z,4.87
2018-08-21T20:37:44.692Z,5.83
2018-08-21T20:40:17.125Z,7.87
2018-08-21T20:42:49.234Z,6.33
2018-08-21T20:45:21.200Z,5.43
2018-08-21T20:47:53.218Z,7.40
2018-08-21T20:50:25.334Z,5.70
2018-08-21T20:52:57.422Z,5.90
2018-08-21T20:55:29.430Z,5.80
2018-08-21T20:58:01.433Z,10.90
2018-08-21T21:00:33.474Z,6.50
2018-08-21T21:03:05.461Z,5.60
2018-08-21T21:05:37.471Z,4.87
2018-08-21T21:08:09.491Z,6.30
2018-08-21T21:10:41.483Z,6.80
2018-08-21T21:13:25.092Z,5.83
2018-08-21T21:16:08.799Z,6.10
2018-08-21T21:18:52.224Z,5.70
2018-08-21T21:21:35.736Z,7.00
2018-08-21T21:24:25.744Z,5.70
2018-08-21T21:26:57.860Z,6.30
2018-08-21T21:29:30.024Z,6.20
2018-08-21T21:32:02.075Z,7.40
2018-08-21T21:34:34.132Z,5.40
2018-08-21T21:37:06.198Z,5.20
2018-08-21T21:39:38.250Z,6.43
2018-08-21T21:42:10.201Z,5.97
2018-08-21T21:44:42.218Z,10.83
2018-08-21T21:47:14.223Z,7.90
2018-08-21T21:49:46.235Z,6.07
2018-08-21T21:52:18.226Z,6.40
2018-08-21T21:54:50.223Z,6.40
2018-08-21T21:57:22.286Z,6.07
2018-08-21T21:59:54.295Z,9.20
2018-08-21T22:02:26.276Z,7.20
2018-08-21T22:04:58.279Z,5.87
2018-08-21T22:07:30.401Z,6.40
2018-08-21T22:10:02.417Z,6.50
2018-08-21T22:12:34.416Z,6.80
2018-08-21T22:15:06.482Z,7.00
2018-08-21T22:17:38.714Z,7.00
2018-08-21T22:20:10.686Z,6.53
2018-08-21T22:22:42.726Z,7.30
2018-08-21T22:25:14.728Z,6.37
2018-08-21T22:27:46.751Z,6.30
2018-08-21T22:30:19.380Z,6.43
2018-08-21T22:32:51.346Z,6.77
2018-08-21T22:35:23.346Z,7.33
2018-08-21T22:37:55.323Z,6.70
2018-08-21T22:40:34.035Z,6.37
2018-08-21T22:43:06.115Z,6.97
2018-08-21T22:45:38.151Z,6.80
2018-08-21T22:48:10.119Z,7.30
2018-08-21T22:50:42.098Z,6.23
2018-08-21T22:53:14.106Z,7.43
2018-08-21T22:55:46.067Z,6.20
2018-08-21T22:58:18.030Z,9.70
2018-08-21T23:00:50.055Z,6.83
2018-08-21T23:03:22.007Z,6.77
2018-08-21T23:05:53.994Z,8.50
2018-08-21T23:08:25.987Z,6.63
2018-08-21T23:10:57.955Z,8.30
2018-08-21T23:13:29.967Z,6.30
2018-08-21T23:16:02.267Z,7.30
2018-08-21T23:18:34.257Z,6.73
2018-08-21T23:21:06.251Z,6.67
2018-08-21T23:23:38.246Z,7.50
2018-08-21T23:26:10.323Z,6.67
2018-08-21T23:28:42.407Z,7.47
2018-08-21T23:31:14.391Z,7.13
2018-08-21T23:33:46.384Z,7.73
2018-08-21T23:36:18.374Z,6.73
2018-08-21T23:38:50.375Z,6.90
2018-08-21T23:41:22.385Z,6.90
2018-08-21T23:43:54.383Z,7.50
2018-08-21T23:46:26.391Z,8.00
2018-08-21T23:48:58.450Z,7.67
2018-08-21T23:51:30.558Z,7.90
2018-08-21T23:54:02.573Z,10.33
2018-08-21T23:56:34.584Z,7.17
2018-08-21T23:59:06.594Z,6.97
